Map

Track Data

SID SEASON NUMBER BASIN SUBBASIN NAME ISO_TIME NATURE LAT LON WMO_WIND WMO_PRES WMO_AGENCY TRACK_TYPE DIST2LAND LANDFALL IFLAG USA_AGENCY USA_ATCF_ID USA_LAT USA_LON USA_RECORD USA_STATUS USA_WIND USA_PRES USA_SSHS USA_R34_NE USA_R34_SE USA_R34_SW USA_R34_NW USA_R50_NE USA_R50_SE USA_R50_SW USA_R50_NW USA_R64_NE USA_R64_SE USA_R64_SW USA_R64_NW USA_POCI USA_ROCI USA_RMW USA_EYE TOKYO_LAT TOKYO_LON TOKYO_GRADE TOKYO_WIND TOKYO_PRES TOKYO_R50_DIR TOKYO_R50_LONG TOKYO_R50_SHORT TOKYO_R30_DIR TOKYO_R30_LONG TOKYO_R30_SHORT TOKYO_LAND CMA_LAT CMA_LON CMA_CAT CMA_WIND CMA_PRES HKO_LAT HKO_LON HKO_CAT HKO_WIND HKO_PRES NEWDELHI_LAT NEWDELHI_LON NEWDELHI_GRADE NEWDELHI_WIND NEWDELHI_PRES NEWDELHI_CI NEWDELHI_DP NEWDELHI_POCI REUNION_LAT REUNION_LON REUNION_TYPE REUNION_WIND REUNION_PRES REUNION_TNUM REUNION_CI REUNION_RMW REUNION_R34_NE REUNION_R34_SE REUNION_R34_SW REUNION_R34_NW REUNION_R50_NE REUNION_R50_SE REUNION_R50_SW REUNION_R50_NW REUNION_R64_NE REUNION_R64_SE REUNION_R64_SW REUNION_R64_NW BOM_LAT BOM_LON BOM_TYPE BOM_WIND BOM_PRES BOM_TNUM BOM_CI BOM_RMW BOM_R34_NE BOM_R34_SE BOM_R34_SW BOM_R34_NW BOM_R50_NE BOM_R50_SE BOM_R50_SW BOM_R50_NW BOM_R64_NE BOM_R64_SE BOM_R64_SW BOM_R64_NW BOM_ROCI BOM_POCI BOM_EYE BOM_POS_METHOD BOM_PRES_METHOD NADI_LAT NADI_LON NADI_CAT NADI_WIND NADI_PRES WELLINGTON_LAT WELLINGTON_LON WELLINGTON_WIND WELLINGTON_PRES DS824_LAT DS824_LON DS824_STAGE DS824_WIND DS824_PRES TD9636_LAT TD9636_LON TD9636_STAGE TD9636_WIND TD9636_PRES TD9635_LAT TD9635_LON TD9635_WIND TD9635_PRES TD9635_ROCI NEUMANN_LAT NEUMANN_LON NEUMANN_CLASS NEUMANN_WIND NEUMANN_PRES MLC_LAT MLC_LON MLC_CLASS MLC_WIND MLC_PRES USA_GUST BOM_GUST BOM_GUST_PER REUNION_GUST REUNION_GUST_PER USA_SEAHGT USA_SEARAD_NE USA_SEARAD_SE USA_SEARAD_SW USA_SEARAD_NW STORM_SPEED STORM_DIR
1958310N16085 1958 105 NI BB NOT_NAMED 1958-11-05 18:00:00 TS 15.8000 85.0000 main 278 278 O________O____ jtwc_io IO111958 15.8000 85.0000 -1 15.8000 85.0000 TC 2 95
1958310N16085 1958 105 NI BB NOT_NAMED 1958-11-05 21:00:00 TS 15.7925 85.0825 main 285 285 P________P____ IO111958 15.7925 85.0825 -1 15.7925 85.0825 TC 2 90
1958310N16085 1958 105 NI BB NOT_NAMED 1958-11-06 00:00:00 TS 15.8000 85.2000 main 293 293 O________O____ jtwc_io IO111958 15.8000 85.2000 -1 15.8000 85.2000 TC 25 3 82
1958310N16085 1958 105 NI BB NOT_NAMED 1958-11-06 03:00:00 TS 15.8311 85.3800 main 308 307 P________PO___ IO111958 15.8350 85.3775 -1 15.8350 85.3775 TC 25 15.8000 85.4000 1 4 77
1958310N16085 1958 105 NI BB NOT_NAMED 1958-11-06 06:00:00 TS 15.8938 85.6072 main 312 312 O________OP___ jtwc_io IO111958 15.9000 85.6000 -1 15.9000 85.6000 TC 25 15.8690 85.6360 1 5 72
1958310N16085 1958 105 NI BB NOT_NAMED 1958-11-06 09:00:00 TS 15.9755 85.8548 main 320 318 P________PP___ IO111958 15.9850 85.8500 -1 15.9850 85.8500 TC 25 15.9502 85.8676 1 5 68
1958310N16085 1958 105 NI BB NOT_NAMED 1958-11-06 12:00:00 TS 16.0855 86.0968 main 325 323 O________OP___ jtwc_io IO111958 16.1000 86.1000 -1 16.1000 86.1000 TC 25 16.0564 86.0904 1 5 60
1958310N16085 1958 105 NI BB NOT_NAMED 1958-11-06 15:00:00 TS 16.2233 86.3100 main 331 331 P________PO___ IO111958 16.2350 86.3150 -1 16.2350 86.3150 TC 25 16.2000 86.3000 1 5 51
1958310N16085 1958 105 NI BB NOT_NAMED 1958-11-06 18:00:00 TS 16.3958 86.4978 main 331 323 O________OP___ jtwc_io IO111958 16.4000 86.5000 -1 16.4000 86.5000 TC 25 16.3874 86.4933 1 5 42
1958310N16085 1958 105 NI BB NOT_NAMED 1958-11-06 21:00:00 TS 16.5999 86.6575 main 330 323 P________PP___ IO111958 16.6000 86.6500 -1 16.6000 86.6500 TC 30 16.5999 86.6723 1 5 37
1958310N16085 1958 105 NI BB NOT_NAMED 1958-11-07 00:00:00 TS 16.8041 86.8134 main 323 323 O________OP___ jtwc_io IO111958 16.8000 86.8000 -1 16.8000 86.8000 TC 35 16.8124 86.8402 1 5 42
1958310N16085 1958 105 NI BB NOT_NAMED 1958-11-07 03:00:00 TS 16.9717 87.0050 main 324 324 P________PO___ IO111958 16.9575 87.0075 -1 16.9575 87.0075 TC 35 17.0000 87.0000 2 5 49
1958310N16085 1958 105 NI BB NOT_NAMED 1958-11-07 06:00:00 TS 17.1136 87.1844 main 334 316 O________OP___ jtwc_io IO111958 17.1000 87.2000 -1 17.1000 87.2000 TC 35 17.1408 87.1533 2 4 44
1958310N16085 1958 105 NI BB NOT_NAMED 1958-11-07 09:00:00 TS 17.2657 87.3001 main 316 309 P________PP___ IO111958 17.2724 87.3000 -1 17.2724 87.3000 TC 35 17.2524 87.3001 2 3 40
1958310N16085 1958 105 NI BB NOT_NAMED 1958-11-07 12:00:00 TS 17.3792 87.4156 main 309 309 O________OP___ jtwc_io IO111958 17.4000 87.4000 -1 17.4000 87.4000 TC 35 17.3377 87.4470 2 3 63
1958310N16085 1958 105 NI BB NOT_NAMED 1958-11-07 15:00:00 TS 17.4100 87.5951 main 317 317 P________PO___ IO111958 17.4150 87.5926 -1 17.4150 87.5926 TC 35 17.4000 87.6000 3 4 84
1958310N16085 1958 105 NI BB NOT_NAMED 1958-11-07 18:00:00 TS 17.4155 87.7866 main 326 321 O________OP___ jtwc_io IO111958 17.4000 87.8000 -1 17.4000 87.8000 TC 35 17.4465 87.7598 3 3 82
1958310N16085 1958 105 NI BB NOT_NAMED 1958-11-07 21:00:00 TS 17.4574 87.9425 main 321 321 P________PP___ IO111958 17.4500 87.9500 -1 17.4500 87.9500 TC 35 17.4724 87.9276 3 3 75
1958310N16085 1958 105 NI BB NOT_NAMED 1958-11-08 00:00:00 TS 17.4957 88.1022 main 332 332 O________OP___ jtwc_io IO111958 17.5000 88.1000 -1 17.5000 88.1000 TC 35 17.4871 88.1067 3 3 83
1958310N16085 1958 105 NI BB NOT_NAMED 1958-11-08 03:00:00 TS 17.5000 88.2900 main 343 343 P________PO___ IO111958 17.5000 88.2850 -1 17.5000 88.2850 TC 35 17.5000 88.3000 3 4 89
1958310N16085 1958 105 NI BB NOT_NAMED 1958-11-08 06:00:00 TS 17.5043 88.5049 main 356 356 O________OP___ jtwc_io IO111958 17.5000 88.5000 -1 17.5000 88.5000 TC 35 17.5128 88.5148 3 4 85
1958310N16085 1958 105 NI BB NOT_NAMED 1958-11-08 09:00:00 TS 17.5375 88.7475 main 369 368 P________PP___ IO111958 17.5425 88.7500 -1 17.5425 88.7500 TC 35 17.5275 88.7427 3 5 80
1958310N16085 1958 105 NI BB NOT_NAMED 1958-11-08 12:00:00 TS 17.5845 88.9914 main 383 383 O________OP___ jtwc_io IO111958 17.6000 89.0000 -1 17.6000 89.0000 TC 35 17.5535 88.9742 3 4 78
1958310N16085 1958 105 NI BB NOT_NAMED 1958-11-08 15:00:00 TS 17.6283 89.2050 main 398 398 P________PO___ IO111958 17.6425 89.2075 -1 17.6425 89.2075 TC 35 17.6000 89.2000 3 4 75
1958310N16085 1958 105 NI BB NOT_NAMED 1958-11-08 18:00:00 TS 17.6895 89.4052 main 406 405 O________OP___ jtwc_io IO111958 17.7000 89.4000 -1 17.7000 89.4000 TC 35 17.6738 89.4129 3 4 68
1958310N16085 1958 105 NI BB NOT_NAMED 1958-11-08 21:00:00 TS 17.7815 89.6048 main 413 406 P________PP___ IO111958 17.7901 89.5974 -1 17.7901 89.5974 TC 30 17.7701 89.6147 3 4 62
1958310N16085 1958 105 NI BB NOT_NAMED 1958-11-09 00:00:00 TS 17.8907 89.8046 main 406 382 O________OP___ jtwc_io IO111958 17.9000 89.8000 -1 17.9000 89.8000 TC 25 17.8813 89.8091 3 4 60
1958310N16085 1958 105 NI BB NOT_NAMED 1958-11-09 03:00:00 NR 18.0000 90.0000 main 382 __________O___ IO111958 -1 TC 18.0000 90.0000 1 4 60

About IBTrACS Database

This database is a web-friendly format of International Best Track Archive for Climate Stewardship (IBTrACS), a global best track data archive curated by NOAA dating back to 1842.

Updated: 2021-12-03